Decoded Metar for KCDR (CHADRON in NE, USA) (IATA:CDR) | Meteo·Mobile Aviation Weather
aviador You're here:

KCDR Decoded Metar

CHADRON in NE, USA
Report Time2018-10-20 07:53:00
UTC Time2018-10-20 08:26:54
Flight Rules vfr VFR
Wind250° at 04 kt
W.Decomp.*RWY 20: 3.1 kt HW 2.5 kt RCW
RWY 29: 2.5 kt HW 3.1 kt LCW
W.Rank250° ranks 2
Current wind is below 250° avg. (6.5)
Visibility9999 m
Phenomena:N/A
Clouds:N/A
Expected CloudBase > 1,200 ft AGL from Temp-Dew spread
CeilingNone
Temp01°C (ISA -7)
Dew Point-2°C (81% RH)
AAT-2.7°C
QNH1028 hPa
Density Alt1,995 ft
Elevation3,314 ft
Report Wrong Elevation
Raw Report
KCDR 200753Z AUTO 25004KT 10SM CLR 01/M02 A3036 RMK AO2 SLP291
T00061017=

Extra information for KCDR:More info

Metar Taf Metar & Taf Last 4 Metars F.Rules Stats Wind Profile Meteogram Temp Stats Airport Information Weather charts Add Link Nearby VenuesMetar ALERT Operation Metar Decoded Social comments

AIRNAV info for KCDR